createdAt,value
2023-04-05T00:00:34.453Z,4.13
2023-04-05T00:01:37.847Z,4.35
2023-04-05T00:02:41.047Z,4.40
2023-04-05T00:03:48.156Z,4.10
2023-04-05T00:04:57.643Z,4.32
2023-04-05T00:06:00.222Z,4.60
2023-04-05T00:07:03.119Z,4.07
2023-04-05T00:08:08.458Z,4.38
2023-04-05T00:09:10.232Z,4.47
2023-04-05T00:10:12.233Z,5.32
2023-04-05T00:11:15.016Z,4.50
2023-04-05T00:12:17.057Z,4.40
2023-04-05T00:13:19.377Z,4.75
2023-04-05T00:14:21.013Z,4.38
2023-04-05T00:15:23.066Z,5.40
2023-04-05T00:16:25.078Z,4.40
2023-04-05T00:17:28.327Z,5.30
2023-04-05T00:18:34.844Z,5.15
2023-04-05T00:19:38.179Z,5.00
2023-04-05T00:20:40.401Z,4.78
2023-04-05T00:21:42.218Z,5.05
2023-04-05T00:22:44.984Z,5.13
2023-04-05T00:23:46.872Z,5.72
2023-04-05T00:24:49.548Z,5.20
2023-04-05T00:25:51.683Z,4.80
2023-04-05T00:26:53.246Z,5.45
2023-04-05T00:27:57.155Z,5.78
2023-04-05T00:28:58.977Z,4.80
2023-04-05T00:30:03.773Z,4.70
2023-04-05T00:31:07.302Z,6.63
2023-04-05T00:32:09.443Z,5.15
2023-04-05T00:33:14.970Z,5.43
2023-04-05T00:34:17.036Z,5.13
2023-04-05T00:35:18.981Z,4.75
2023-04-05T00:36:21.111Z,5.68
2023-04-05T00:37:24.042Z,5.35
2023-04-05T00:38:25.950Z,5.05
2023-04-05T00:39:27.659Z,5.15
2023-04-05T00:40:33.102Z,5.57
2023-04-05T00:41:36.451Z,4.38
2023-04-05T00:42:39.128Z,4.53
2023-04-05T00:43:41.716Z,4.93
2023-04-05T00:44:43.463Z,4.63
2023-04-05T00:45:45.459Z,5.05
2023-04-05T00:46:47.692Z,4.80
2023-04-05T00:47:49.604Z,4.50
2023-04-05T00:48:51.824Z,5.47
2023-04-05T00:49:53.609Z,4.80
2023-04-05T00:50:58.294Z,4.70
2023-04-05T00:52:00.979Z,5.28
2023-04-05T00:53:02.785Z,4.97
2023-04-05T00:54:06.568Z,5.10
2023-04-05T00:55:10.592Z,5.10
2023-04-05T00:56:18.568Z,4.93
2023-04-05T00:57:20.435Z,4.55
2023-04-05T00:58:24.012Z,4.85
2023-04-05T00:59:26.792Z,4.53
2023-04-05T01:00:28.720Z,5.63
2023-04-05T01:01:34.459Z,4.65
2023-04-05T01:02:46.079Z,5.25
2023-04-05T01:04:03.496Z,5.70
2023-04-05T01:05:39.056Z,5.90
2023-04-05T01:06:56.221Z,5.20
2023-04-05T01:08:36.904Z,5.15
2023-04-05T01:09:57.985Z,4.80
2023-04-05T01:11:03.424Z,5.45
2023-04-05T01:12:07.721Z,5.22
2023-04-05T01:13:09.817Z,5.32
2023-04-05T01:14:11.610Z,5.35
2023-04-05T01:15:14.172Z,5.95
2023-04-05T01:16:17.098Z,6.05
2023-04-05T01:17:22.848Z,5.60
2023-04-05T01:18:27.908Z,5.97
2023-04-05T01:19:32.634Z,5.95
2023-04-05T01:20:40.893Z,5.10
2023-04-05T01:21:42.845Z,5.50
2023-04-05T01:23:15.068Z,5.05
2023-04-05T01:24:53.081Z,5.63
2023-04-05T01:26:21.996Z,5.20
2023-04-05T01:27:56.196Z,5.10
2023-04-05T01:29:29.916Z,4.88
2023-04-05T01:31:16.939Z,5.25
2023-04-05T01:32:35.535Z,4.85
2023-04-05T01:33:58.775Z,5.05
2023-04-05T01:35:41.976Z,5.20
2023-04-05T01:36:54.503Z,5.57
2023-04-05T01:38:04.206Z,6.25
2023-04-05T01:39:12.015Z,5.43
2023-04-05T01:40:14.668Z,4.80
2023-04-05T01:41:16.863Z,5.22
2023-04-05T01:42:25.614Z,4.93
2023-04-05T01:43:29.097Z,5.88
2023-04-05T01:44:33.794Z,5.88
2023-04-05T01:45:40.574Z,5.35
2023-04-05T01:46:42.983Z,5.05
2023-04-05T01:47:48.432Z,6.13
2023-04-05T01:48:50.125Z,5.00
2023-04-05T01:49:52.376Z,5.50
2023-04-05T01:50:54.099Z,5.55
2023-04-05T01:51:55.886Z,6.00
2023-04-05T01:52:57.483Z,5.63
2023-04-05T01:54:00.498Z,6.05
2023-04-05T01:55:04.338Z,5.78
2023-04-05T01:56:06.314Z,6.00
2023-04-05T01:57:08.156Z,5.47
2023-04-05T01:58:10.291Z,5.50
2023-04-05T01:59:12.116Z,6.05
2023-04-05T02:00:16.664Z,5.97
2023-04-05T02:01:18.310Z,5.72
2023-04-05T02:02:20.553Z,5.53
2023-04-05T02:03:23.885Z,6.40
2023-04-05T02:04:27.748Z,6.18
2023-04-05T02:05:32.385Z,6.70
2023-04-05T02:06:35.608Z,6.22
2023-04-05T02:07:37.708Z,6.85
2023-04-05T02:08:39.695Z,5.70
2023-04-05T02:09:41.417Z,5.93
2023-04-05T02:10:43.415Z,6.78
2023-04-05T02:11:45.267Z,5.60
2023-04-05T02:12:47.232Z,5.50
2023-04-05T02:13:49.715Z,6.15
2023-04-05T02:14:52.592Z,5.90
2023-04-05T02:15:55.354Z,6.25
2023-04-05T02:16:57.042Z,6.07
2023-04-05T02:18:02.447Z,5.70
2023-04-05T02:19:05.418Z,5.95
2023-04-05T02:20:09.016Z,5.95
2023-04-05T02:21:11.926Z,5.35
2023-04-05T02:22:14.134Z,7.30
2023-04-05T02:23:19.886Z,7.15
2023-04-05T02:24:21.888Z,7.00
2023-04-05T02:25:23.780Z,7.15
2023-04-05T02:26:25.720Z,7.65
2023-04-05T02:27:27.660Z,7.57
2023-04-05T02:28:29.673Z,7.32
2023-04-05T02:29:35.427Z,7.70
2023-04-05T02:30:39.227Z,8.20
2023-04-05T02:31:41.123Z,8.30
2023-04-05T02:32:43.928Z,7.88
2023-04-05T02:33:45.775Z,7.78
2023-04-05T02:34:47.443Z,8.00
2023-04-05T02:35:50.564Z,7.72
2023-04-05T02:36:52.306Z,7.50
2023-04-05T02:37:54.365Z,7.35
2023-04-05T02:38:56.451Z,8.30
2023-04-05T02:39:57.958Z,9.07
2023-04-05T02:41:00.960Z,8.90
2023-04-05T02:42:02.945Z,7.50
2023-04-05T02:43:04.867Z,7.13
2023-04-05T02:44:06.638Z,8.10
2023-04-05T02:45:08.865Z,7.60
2023-04-05T02:46:10.729Z,7.88
2023-04-05T02:47:12.590Z,9.30
2023-04-05T02:48:15.866Z,6.38
2023-04-05T02:49:17.722Z,7.55
2023-04-05T02:50:20.847Z,7.95
2023-04-05T02:51:22.712Z,6.80
2023-04-05T02:52:24.761Z,7.32
2023-04-05T02:53:26.716Z,7.40
2023-04-05T02:54:28.320Z,7.50
2023-04-05T02:55:31.267Z,7.13
2023-04-05T02:56:38.208Z,7.65
2023-04-05T02:57:42.943Z,6.63
2023-04-05T02:58:46.112Z,6.32
2023-04-05T02:59:48.097Z,7.60
2023-04-05T03:00:57.325Z,6.47
2023-04-05T03:02:01.463Z,6.80
2023-04-05T03:03:03.635Z,7.28
2023-04-05T03:04:05.812Z,7.68
2023-04-05T03:05:08.177Z,7.63
2023-04-05T03:06:10.415Z,7.00
2023-04-05T03:07:18.927Z,7.45
2023-04-05T03:08:24.082Z,7.90
2023-04-05T03:09:27.614Z,7.28
2023-04-05T03:10:33.647Z,6.70
2023-04-05T03:11:35.780Z,6.30
2023-04-05T03:12:37.460Z,6.82
2023-04-05T03:13:41.279Z,6.57
2023-04-05T03:14:43.567Z,6.70
2023-04-05T03:15:45.363Z,7.03
2023-04-05T03:16:47.742Z,7.20
2023-04-05T03:17:49.514Z,6.40
2023-04-05T03:18:51.369Z,7.00
2023-04-05T03:19:54.263Z,7.43
2023-04-05T03:20:59.494Z,7.22
2023-04-05T03:22:03.245Z,6.55
2023-04-05T03:23:05.094Z,6.95
2023-04-05T03:24:07.585Z,7.20
2023-04-05T03:25:10.908Z,7.30
2023-04-05T03:26:16.814Z,7.93
2023-04-05T03:27:19.161Z,7.20
2023-04-05T03:28:21.674Z,7.90
2023-04-05T03:29:24.076Z,7.20
2023-04-05T03:30:26.560Z,7.22
2023-04-05T03:31:31.251Z,7.28
2023-04-05T03:32:33.726Z,7.32
2023-04-05T03:33:37.476Z,7.82
2023-04-05T03:34:39.669Z,7.50
2023-04-05T03:35:41.863Z,7.22
2023-04-05T03:36:46.439Z,6.50
2023-04-05T03:37:49.059Z,7.00
2023-04-05T03:38:51.931Z,7.50
2023-04-05T03:39:53.658Z,7.20
2023-04-05T03:40:57.094Z,7.05
2023-04-05T03:41:58.797Z,7.20
2023-04-05T03:43:01.342Z,8.10
2023-04-05T03:44:04.029Z,7.35
2023-04-05T03:45:06.533Z,7.13
2023-04-05T03:46:08.298Z,8.25
2023-04-05T03:47:10.926Z,10.10
2023-04-05T03:48:12.572Z,11.52
2023-04-05T03:49:14.418Z,12.48
2023-04-05T03:50:16.175Z,17.90
2023-04-05T03:51:18.946Z,20.30
2023-04-05T03:52:21.008Z,14.90
2023-04-05T03:53:23.486Z,10.88
2023-04-05T03:54:25.407Z,10.57
2023-04-05T03:55:27.677Z,8.82
2023-04-05T03:56:29.617Z,8.95
2023-04-05T03:57:31.522Z,8.57
2023-04-05T03:58:33.328Z,8.80
2023-04-05T03:59:35.936Z,9.13
2023-04-05T04:00:37.979Z,11.73
2023-04-05T04:01:40.774Z,12.05
2023-04-05T04:02:44.039Z,12.02
2023-04-05T04:03:45.989Z,10.80
2023-04-05T04:04:47.659Z,10.95
2023-04-05T04:05:49.337Z,10.20
2023-04-05T04:06:51.716Z,9.52
2023-04-05T04:07:53.603Z,8.05
2023-04-05T04:08:55.245Z,8.43
2023-04-05T04:09:56.988Z,7.85
2023-04-05T04:10:58.905Z,8.52
2023-04-05T04:12:01.028Z,8.43
2023-04-05T04:13:02.646Z,7.85
2023-04-05T04:14:04.378Z,7.38
2023-04-05T04:15:06.673Z,9.27
2023-04-05T04:16:08.538Z,9.40
2023-04-05T04:17:10.295Z,13.80
2023-04-05T04:18:12.391Z,7.95
2023-04-05T04:19:14.080Z,8.35
2023-04-05T04:20:15.813Z,8.25
2023-04-05T04:21:19.368Z,7.85
2023-04-05T04:22:22.759Z,7.57
2023-04-05T04:23:25.108Z,8.43
2023-04-05T04:24:27.541Z,8.70
2023-04-05T04:25:31.164Z,7.45
2023-04-05T04:26:39.684Z,8.23
2023-04-05T04:27:43.516Z,8.45
2023-04-05T04:28:45.730Z,8.23
2023-04-05T04:29:48.001Z,9.27
2023-04-05T04:30:49.667Z,8.77
2023-04-05T04:31:51.533Z,8.32
2023-04-05T04:32:54.051Z,8.50
2023-04-05T04:33:55.775Z,8.73
2023-04-05T04:34:58.736Z,9.27
2023-04-05T04:36:02.844Z,9.45
2023-04-05T04:37:04.625Z,8.60
2023-04-05T04:38:07.502Z,8.50
2023-04-05T04:39:10.359Z,7.97
2023-04-05T04:40:17.227Z,8.50
2023-04-05T04:41:20.195Z,8.73
2023-04-05T04:42:23.005Z,38.15
2023-04-05T04:43:26.849Z,34.90
2023-04-05T04:44:31.346Z,24.77
2023-04-05T04:45:37.739Z,20.83
2023-04-05T04:46:43.254Z,22.15
2023-04-05T04:47:47.266Z,17.45
2023-04-05T04:48:48.985Z,18.80
2023-04-05T04:49:52.808Z,14.23
2023-04-05T04:50:54.798Z,15.40
2023-04-05T04:52:00.028Z,12.77
2023-04-05T04:53:02.361Z,12.68
2023-04-05T04:54:04.854Z,11.43
2023-04-05T04:55:09.037Z,10.70
2023-04-05T04:56:11.135Z,10.30
2023-04-05T04:57:13.084Z,10.30
2023-04-05T04:58:17.966Z,10.63
2023-04-05T04:59:19.616Z,11.35
2023-04-05T05:00:22.786Z,14.00
2023-04-05T05:01:25.091Z,12.82
2023-04-05T05:02:30.953Z,12.38
2023-04-05T05:03:35.718Z,12.63
2023-04-05T05:04:37.307Z,11.55
2023-04-05T05:05:50.136Z,12.68
2023-04-05T05:06:54.034Z,12.65
2023-04-05T05:07:55.699Z,11.45
2023-04-05T05:08:57.234Z,13.73
2023-04-05T05:09:58.883Z,12.43
2023-04-05T05:11:01.159Z,13.43
2023-04-05T05:12:02.891Z,12.88
2023-04-05T05:13:04.915Z,12.77
2023-04-05T05:14:06.483Z,11.88
2023-04-05T05:15:09.041Z,13.10
2023-04-05T05:16:11.546Z,12.35
2023-04-05T05:17:13.303Z,13.55
2023-04-05T05:18:15.008Z,14.55
2023-04-05T05:19:16.665Z,23.33
2023-04-05T05:20:18.505Z,32.25
2023-04-05T05:21:20.851Z,34.92
2023-04-05T05:22:22.746Z,39.10
2023-04-05T05:23:24.907Z,39.05
2023-04-05T05:24:26.687Z,38.22
2023-04-05T05:25:29.964Z,35.42
2023-04-05T05:26:31.686Z,31.05
2023-04-05T05:27:36.948Z,24.27
2023-04-05T05:28:39.508Z,23.70
2023-04-05T05:29:41.052Z,20.80
2023-04-05T05:30:43.120Z,22.15
2023-04-05T05:31:45.244Z,20.90
2023-04-05T05:32:48.775Z,20.50
2023-04-05T05:33:51.233Z,18.38
2023-04-05T05:34:52.989Z,15.68
2023-04-05T05:35:54.780Z,13.73
2023-04-05T05:36:56.467Z,14.43
2023-04-05T05:37:58.135Z,13.43
2023-04-05T05:39:00.028Z,13.32
2023-04-05T05:40:06.057Z,12.05
2023-04-05T05:41:07.917Z,12.35
2023-04-05T05:42:09.864Z,11.00
2023-04-05T05:43:11.684Z,10.70
2023-04-05T05:44:13.857Z,11.25
2023-04-05T05:45:15.505Z,11.55
2023-04-05T05:46:18.430Z,12.00
2023-04-05T05:47:21.925Z,10.90
2023-04-05T05:48:23.658Z,12.05
2023-04-05T05:49:25.680Z,11.32
2023-04-05T05:50:27.507Z,12.80
2023-04-05T05:51:29.294Z,10.77
2023-04-05T05:52:31.971Z,10.52
2023-04-05T05:53:34.205Z,11.07
2023-04-05T05:54:36.372Z,13.90
2023-04-05T05:55:37.958Z,11.10
2023-04-05T05:56:39.609Z,10.80
2023-04-05T05:57:41.950Z,11.05
2023-04-05T05:58:43.812Z,10.23
2023-04-05T05:59:45.764Z,11.13
2023-04-05T06:00:49.955Z,10.00
2023-04-05T06:01:52.606Z,9.65
2023-04-05T06:02:54.358Z,9.27
2023-04-05T06:03:56.172Z,9.60
2023-04-05T06:04:58.343Z,11.13
2023-04-05T06:06:03.046Z,10.98
2023-04-05T06:07:04.664Z,9.07
2023-04-05T06:08:06.651Z,8.60
2023-04-05T06:09:08.902Z,10.05
2023-04-05T06:10:12.480Z,9.85
2023-04-05T06:11:21.728Z,8.80
2023-04-05T06:12:28.696Z,9.00
2023-04-05T06:13:31.223Z,8.05
2023-04-05T06:14:32.790Z,8.10
2023-04-05T06:15:34.470Z,7.93
2023-04-05T06:16:40.137Z,7.95
2023-04-05T06:17:42.931Z,7.88
2023-04-05T06:18:44.960Z,7.70
2023-04-05T06:19:46.864Z,7.18
2023-04-05T06:20:48.523Z,8.32
2023-04-05T06:21:50.350Z,10.73
2023-04-05T06:22:52.047Z,10.35
2023-04-05T06:23:53.939Z,9.60
2023-04-05T06:24:55.819Z,9.50
2023-04-05T06:25:57.646Z,9.18
2023-04-05T06:26:59.487Z,7.95
2023-04-05T06:28:03.755Z,7.75
2023-04-05T06:29:06.247Z,8.00
2023-04-05T06:30:08.533Z,7.85
2023-04-05T06:31:11.661Z,7.68
2023-04-05T06:32:13.340Z,7.07
2023-04-05T06:33:14.958Z,7.68
2023-04-05T06:34:16.872Z,7.85
2023-04-05T06:35:19.060Z,8.73
2023-04-05T06:36:20.813Z,7.57
2023-04-05T06:37:22.982Z,9.73
2023-04-05T06:38:24.577Z,7.80
2023-04-05T06:39:26.473Z,6.95
2023-04-05T06:40:28.482Z,7.65
2023-04-05T06:41:33.286Z,7.60
2023-04-05T06:42:34.962Z,7.50
2023-04-05T06:43:37.806Z,6.60
2023-04-05T06:44:39.612Z,6.50
2023-04-05T06:45:41.560Z,7.25
2023-04-05T06:46:43.263Z,7.05
2023-04-05T06:47:45.150Z,6.53
2023-04-05T06:48:48.354Z,6.32
2023-04-05T06:49:50.070Z,6.78
2023-04-05T06:51:02.284Z,7.40
2023-04-05T06:52:06.063Z,6.00
2023-04-05T06:53:08.126Z,6.65
2023-04-05T06:54:10.480Z,5.80
2023-04-05T06:55:12.217Z,5.68
2023-04-05T06:56:13.864Z,5.35
2023-04-05T06:57:15.504Z,6.50
2023-04-05T06:58:17.416Z,6.20
2023-04-05T06:59:19.247Z,6.07
2023-04-05T07:00:24.307Z,5.53
2023-04-05T07:01:26.496Z,5.40
2023-04-05T07:02:29.162Z,6.03
2023-04-05T07:03:31.153Z,5.93
2023-04-05T07:04:38.041Z,6.00
2023-04-05T07:05:49.771Z,6.00
2023-04-05T07:06:52.176Z,6.23
2023-04-05T07:07:53.875Z,7.07
2023-04-05T07:08:56.108Z,6.03
2023-04-05T07:09:57.783Z,6.20
2023-04-05T07:10:59.682Z,6.83
2023-04-05T07:12:06.780Z,6.23
2023-04-05T07:13:08.426Z,7.00
2023-04-05T07:14:10.304Z,6.47
2023-04-05T07:15:12.399Z,6.00
2023-04-05T07:16:14.221Z,6.67
2023-04-05T07:17:16.027Z,6.10
2023-04-05T07:18:19.561Z,6.00
2023-04-05T07:19:21.260Z,6.30
2023-04-05T07:20:22.969Z,5.77
2023-04-05T07:21:25.499Z,5.80
2023-04-05T07:22:27.101Z,6.80
2023-04-05T07:23:28.874Z,5.93
2023-04-05T07:24:30.635Z,6.00
2023-04-05T07:25:32.526Z,5.05
2023-04-05T07:26:37.944Z,7.03
2023-04-05T07:27:39.930Z,6.60
2023-04-05T07:28:42.080Z,6.17
2023-04-05T07:29:45.942Z,5.30
2023-04-05T07:30:49.755Z,5.43
2023-04-05T07:31:51.434Z,5.78
2023-04-05T07:32:53.242Z,5.23
2023-04-05T07:33:54.909Z,5.53
2023-04-05T07:34:56.768Z,6.00
2023-04-05T07:35:58.696Z,4.90
2023-04-05T07:37:00.740Z,5.83
2023-04-05T07:38:02.742Z,5.30
2023-04-05T07:39:05.720Z,5.77
2023-04-05T07:40:08.087Z,7.17
2023-04-05T07:41:09.779Z,7.40
2023-04-05T07:42:11.821Z,7.17
2023-04-05T07:43:13.901Z,7.03
2023-04-05T07:44:15.768Z,6.60
2023-04-05T07:45:18.429Z,5.67
2023-04-05T07:46:20.786Z,5.70
2023-04-05T07:47:22.555Z,6.13
2023-04-05T07:48:24.174Z,5.97
2023-04-05T07:49:27.352Z,5.80
2023-04-05T07:50:29.079Z,6.63
2023-04-05T07:51:32.002Z,7.10
2023-04-05T07:52:33.800Z,6.90
2023-04-05T07:53:37.021Z,5.90
2023-04-05T07:54:40.004Z,5.70
2023-04-05T07:55:42.235Z,4.93
2023-04-05T07:56:43.886Z,5.50
2023-04-05T07:57:45.749Z,5.63
2023-04-05T07:58:50.495Z,4.87
2023-04-05T07:59:54.842Z,5.00
2023-04-05T08:01:01.269Z,5.15
2023-04-05T08:02:13.838Z,4.78
2023-04-05T08:03:16.612Z,5.27
2023-04-05T08:04:19.387Z,5.97
2023-04-05T08:05:21.071Z,5.53
2023-04-05T08:06:24.166Z,5.80
2023-04-05T08:07:25.987Z,5.30
2023-04-05T08:08:27.872Z,4.97
2023-04-05T08:09:29.518Z,9.07
2023-04-05T08:10:32.033Z,8.17
2023-04-05T08:11:34.197Z,8.27
2023-04-05T08:12:37.576Z,7.00
2023-04-05T08:13:41.830Z,6.23
2023-04-05T08:14:43.638Z,6.07
2023-04-05T08:15:45.540Z,5.80
2023-04-05T08:16:47.141Z,5.80
2023-04-05T08:17:48.799Z,5.07
2023-04-05T08:18:50.694Z,4.87
2023-04-05T08:19:53.491Z,4.85
2023-04-05T08:20:55.996Z,5.67
2023-04-05T08:21:57.667Z,4.97
2023-04-05T08:22:59.792Z,5.60
2023-04-05T08:24:01.851Z,5.75
2023-04-05T08:25:03.637Z,5.50
2023-04-05T08:26:08.042Z,5.45
2023-04-05T08:27:09.672Z,4.90
2023-04-05T08:28:11.635Z,5.07
2023-04-05T08:29:13.852Z,5.30
2023-04-05T08:30:16.658Z,4.97
2023-04-05T08:31:18.445Z,5.55
2023-04-05T08:32:20.051Z,5.15
2023-04-05T08:33:21.680Z,6.07
2023-04-05T08:34:23.454Z,5.30
2023-04-05T08:35:25.313Z,5.17
2023-04-05T08:36:27.244Z,6.20
2023-04-05T08:37:28.934Z,6.10
2023-04-05T08:38:30.668Z,5.87
2023-04-05T08:39:35.581Z,5.35
2023-04-05T08:40:44.773Z,5.20
2023-04-05T08:41:59.564Z,5.67
2023-04-05T08:43:37.854Z,5.87
2023-04-05T08:44:41.415Z,6.30
2023-04-05T08:45:53.519Z,5.97
2023-04-05T08:46:58.289Z,6.23
2023-04-05T08:48:00.110Z,5.77
2023-04-05T08:49:08.860Z,6.40
2023-04-05T08:50:11.598Z,5.97
2023-04-05T08:51:13.469Z,5.93
2023-04-05T08:52:15.840Z,5.60
2023-04-05T08:53:17.953Z,5.10
2023-04-05T08:54:21.551Z,5.40
2023-04-05T08:55:24.211Z,6.23
2023-04-05T08:56:31.174Z,6.30
2023-04-05T08:57:35.075Z,6.20
2023-04-05T08:58:38.989Z,6.05
2023-04-05T08:59:44.578Z,5.97
2023-04-05T09:00:46.641Z,5.37
2023-04-05T09:01:52.298Z,5.68
2023-04-05T09:02:58.228Z,6.00
2023-04-05T09:04:11.584Z,5.93
2023-04-05T09:05:15.158Z,6.10
2023-04-05T09:06:18.627Z,6.00
2023-04-05T09:07:21.925Z,5.63
2023-04-05T09:08:24.520Z,5.73
2023-04-05T09:09:27.038Z,5.72
2023-04-05T09:10:29.683Z,6.33
2023-04-05T09:11:33.187Z,6.10
2023-04-05T09:12:35.930Z,5.97
2023-04-05T09:13:38.062Z,5.88
2023-04-05T09:14:41.840Z,5.60
2023-04-05T09:15:44.950Z,5.77
2023-04-05T09:16:46.903Z,5.83
2023-04-05T09:17:48.718Z,5.50
2023-04-05T09:18:50.568Z,5.60
2023-04-05T09:19:52.981Z,5.90
2023-04-05T09:21:04.025Z,6.03
2023-04-05T09:22:07.616Z,5.95
2023-04-05T09:23:09.436Z,5.97
2023-04-05T09:24:11.033Z,6.27
2023-04-05T09:25:32.722Z,5.87
2023-04-05T09:26:34.535Z,5.57
2023-04-05T09:27:36.228Z,5.53
2023-04-05T09:28:44.659Z,5.03
2023-04-05T09:29:50.060Z,6.13
2023-04-05T09:30:51.976Z,5.97
2023-04-05T09:31:54.726Z,5.90
2023-04-05T09:32:57.250Z,5.60
2023-04-05T09:34:03.286Z,5.83
2023-04-05T09:35:06.143Z,6.30
2023-04-05T09:36:11.224Z,6.20
2023-04-05T09:37:17.738Z,5.40
2023-04-05T09:38:20.661Z,6.87
2023-04-05T09:39:32.610Z,5.93
2023-04-05T09:40:48.271Z,5.80
2023-04-05T09:42:15.487Z,5.77
2023-04-05T09:43:41.381Z,5.83
2023-04-05T09:44:52.122Z,6.30
2023-04-05T09:45:53.857Z,5.83
2023-04-05T09:46:55.457Z,6.17
2023-04-05T09:47:58.613Z,6.57
2023-04-05T09:49:02.412Z,5.90
2023-04-05T09:50:19.184Z,6.90
2023-04-05T09:51:22.157Z,5.73
2023-04-05T09:52:35.308Z,6.20
2023-04-05T09:53:37.946Z,5.70
2023-04-05T09:54:43.399Z,6.70
2023-04-05T09:55:45.159Z,6.57
2023-04-05T09:56:55.247Z,6.20
2023-04-05T09:57:57.116Z,5.90
2023-04-05T09:59:06.305Z,5.97
2023-04-05T10:00:22.476Z,5.85
2023-04-05T10:01:32.556Z,6.53
2023-04-05T10:02:39.237Z,6.10
2023-04-05T10:03:48.459Z,5.90
2023-04-05T10:04:50.470Z,6.30
2023-04-05T10:05:56.633Z,5.00
2023-04-05T10:06:58.780Z,6.60
2023-04-05T10:08:02.137Z,5.40
2023-04-05T10:09:05.146Z,5.63
2023-04-05T10:10:07.701Z,6.10
2023-04-05T10:11:11.005Z,5.70
2023-04-05T10:12:28.699Z,5.90
2023-04-05T10:13:32.511Z,5.77
2023-04-05T10:14:36.102Z,5.45
2023-04-05T10:15:37.961Z,5.90
2023-04-05T10:17:04.590Z,5.57
2023-04-05T10:18:14.126Z,5.50
2023-04-05T10:19:28.632Z,5.78
2023-04-05T10:20:33.472Z,5.50
2023-04-05T10:21:37.882Z,5.70
2023-04-05T10:22:52.059Z,4.93
2023-04-05T10:24:36.956Z,5.67
2023-04-05T10:25:54.038Z,5.40
2023-04-05T10:27:06.624Z,5.20
2023-04-05T10:28:18.546Z,5.50
2023-04-05T10:29:30.555Z,4.40
2023-04-05T10:30:46.040Z,5.43
2023-04-05T10:31:53.961Z,5.80
2023-04-05T10:33:27.477Z,5.17
2023-04-05T10:34:40.652Z,5.50
2023-04-05T10:36:02.678Z,4.50
2023-04-05T10:37:04.680Z,5.00
2023-04-05T10:38:27.344Z,5.00
2023-04-05T10:39:34.658Z,4.90
2023-04-05T10:40:36.640Z,4.43
2023-04-05T10:41:47.312Z,5.10
2023-04-05T10:42:49.047Z,4.77
2023-04-05T10:43:53.189Z,5.10
2023-04-05T10:45:04.904Z,5.07
2023-04-05T10:46:08.136Z,5.33
2023-04-05T10:47:14.008Z,4.90
2023-04-05T10:48:28.545Z,5.03
2023-04-05T10:49:38.026Z,5.40
2023-04-05T10:50:41.050Z,4.25
2023-04-05T10:51:45.050Z,4.93
2023-04-05T10:52:48.393Z,4.33
2023-04-05T10:53:51.649Z,4.30
2023-04-05T10:54:56.714Z,4.73
2023-04-05T10:55:59.382Z,5.27
2023-04-05T10:57:06.289Z,5.67
2023-04-05T10:58:11.111Z,5.40
2023-04-05T10:59:14.180Z,5.00
2023-04-05T11:00:17.601Z,5.10
2023-04-05T11:01:20.777Z,5.23
2023-04-05T11:02:23.317Z,5.20
2023-04-05T11:03:48.209Z,5.67
2023-04-05T11:04:57.575Z,5.50
2023-04-05T11:06:29.892Z,5.23
2023-04-05T11:07:45.671Z,4.53
2023-04-05T11:08:48.979Z,5.90
2023-04-05T11:10:01.291Z,7.67
2023-04-05T11:11:04.062Z,6.57
2023-04-05T11:12:06.607Z,5.65
2023-04-05T11:13:10.911Z,6.10
2023-04-05T11:14:36.182Z,5.90
2023-04-05T11:15:38.218Z,5.37
2023-04-05T11:16:41.682Z,5.67
2023-04-05T11:17:43.432Z,6.07
2023-04-05T11:18:47.491Z,5.35
2023-04-05T11:19:52.418Z,5.67
2023-04-05T11:21:06.309Z,5.50
2023-04-05T11:22:08.666Z,5.53
2023-04-05T11:23:12.510Z,4.80
2023-04-05T11:24:16.191Z,5.00
2023-04-05T11:25:25.163Z,4.73
2023-04-05T11:26:52.889Z,5.37
2023-04-05T11:28:01.233Z,5.60
2023-04-05T11:29:03.789Z,5.47
2023-04-05T11:30:06.648Z,5.30
2023-04-05T11:31:18.186Z,4.40
2023-04-05T11:32:21.380Z,4.50
2023-04-05T11:33:49.791Z,4.82
2023-04-05T11:35:05.531Z,4.57
2023-04-05T11:36:07.732Z,4.82
2023-04-05T11:37:09.618Z,5.00
2023-04-05T11:38:22.194Z,5.10
2023-04-05T11:39:24.301Z,5.47
2023-04-05T11:40:28.879Z,5.20
2023-04-05T11:41:33.681Z,4.57
2023-04-05T11:42:36.485Z,5.47
2023-04-05T11:43:39.512Z,5.17
2023-04-05T11:44:45.966Z,5.27
2023-04-05T11:45:48.594Z,4.70
2023-04-05T11:46:52.242Z,4.67
2023-04-05T11:47:54.121Z,4.97
2023-04-05T11:48:57.100Z,5.40
2023-04-05T11:50:00.068Z,4.37
2023-04-05T11:51:09.544Z,4.83
2023-04-05T11:52:16.579Z,5.40
2023-04-05T11:53:18.489Z,5.10
2023-04-05T11:54:31.161Z,5.17
2023-04-05T11:55:32.980Z,4.90
2023-04-05T11:56:35.013Z,4.43
2023-04-05T11:57:37.811Z,4.60
2023-04-05T11:58:39.969Z,4.70
2023-04-05T11:59:43.848Z,4.80
2023-04-05T12:00:46.714Z,5.03
2023-04-05T12:01:58.339Z,5.40
2023-04-05T12:03:00.135Z,4.77
2023-04-05T12:04:04.380Z,4.63
2023-04-05T12:05:06.795Z,4.93
2023-04-05T12:06:08.947Z,4.67
2023-04-05T12:07:15.985Z,4.83
2023-04-05T12:08:19.803Z,4.60
2023-04-05T12:09:21.986Z,5.10
2023-04-05T12:10:23.686Z,5.33
2023-04-05T12:11:27.274Z,5.82
2023-04-05T12:12:49.739Z,5.00
2023-04-05T12:13:56.608Z,5.33
2023-04-05T12:15:00.567Z,10.33
2023-04-05T12:16:05.029Z,10.70
2023-04-05T12:17:06.944Z,7.10
2023-04-05T12:18:15.499Z,5.70
2023-04-05T12:19:17.302Z,4.47
2023-04-05T12:20:27.013Z,6.40
2023-04-05T12:21:28.967Z,5.13
2023-04-05T12:22:30.975Z,8.45
2023-04-05T12:23:33.104Z,5.32
2023-04-05T12:24:35.605Z,10.10
2023-04-05T12:25:39.322Z,11.30
2023-04-05T12:26:41.412Z,5.60
2023-04-05T12:27:44.162Z,5.17
2023-04-05T12:29:02.536Z,9.40
2023-04-05T12:30:21.274Z,6.23
2023-04-05T12:31:39.810Z,5.80
2023-04-05T12:32:44.425Z,10.60
2023-04-05T12:33:46.653Z,7.37
2023-04-05T12:34:48.777Z,5.00
2023-04-05T12:35:52.145Z,4.60
2023-04-05T12:36:54.208Z,5.22
2023-04-05T12:37:58.707Z,5.43
2023-04-05T12:39:03.199Z,5.00
2023-04-05T12:40:05.979Z,5.23
2023-04-05T12:41:07.901Z,5.45
2023-04-05T12:42:17.667Z,5.63
2023-04-05T12:43:22.210Z,5.20
2023-04-05T12:44:31.097Z,4.90
2023-04-05T12:45:40.878Z,5.40
2023-04-05T12:46:47.556Z,5.20
2023-04-05T12:47:57.764Z,5.17
2023-04-05T12:48:59.666Z,5.50
2023-04-05T12:50:15.499Z,5.30
2023-04-05T12:51:17.507Z,5.15
2023-04-05T12:52:22.214Z,5.30
2023-04-05T12:53:28.658Z,5.23
2023-04-05T12:54:32.354Z,5.07
2023-04-05T12:55:43.956Z,6.27
2023-04-05T12:56:45.821Z,4.73
2023-04-05T12:57:55.002Z,4.97
2023-04-05T12:58:56.692Z,5.73
2023-04-05T12:59:58.370Z,6.10
2023-04-05T13:01:00.938Z,5.87
2023-04-05T13:02:03.289Z,5.63
2023-04-05T13:03:06.171Z,5.37
2023-04-05T13:04:15.916Z,5.20
2023-04-05T13:05:19.050Z,5.97
2023-04-05T13:06:21.548Z,5.18
2023-04-05T13:07:23.176Z,5.13
2023-04-05T13:08:26.994Z,5.13
2023-04-05T13:09:32.922Z,5.47
2023-04-05T13:10:34.897Z,5.57
2023-04-05T13:11:36.672Z,6.23
2023-04-05T13:12:38.815Z,5.70
2023-04-05T13:13:40.539Z,5.60
2023-04-05T13:14:42.950Z,5.43
2023-04-05T13:15:46.110Z,7.30
2023-04-05T13:16:48.589Z,6.27
2023-04-05T13:17:52.128Z,5.50
2023-04-05T13:18:56.944Z,5.75
2023-04-05T13:19:58.850Z,5.57
2023-04-05T13:21:00.709Z,5.75
2023-04-05T13:22:02.873Z,5.55
2023-04-05T13:23:10.751Z,5.20
2023-04-05T13:24:13.007Z,4.77
2023-04-05T13:25:16.039Z,5.47
2023-04-05T13:26:18.012Z,4.73
2023-04-05T13:27:24.291Z,5.23
2023-04-05T13:28:28.996Z,5.43
2023-04-05T13:29:31.222Z,4.60
2023-04-05T13:30:33.636Z,4.90
2023-04-05T13:31:35.725Z,4.80
2023-04-05T13:32:37.550Z,5.70
2023-04-05T13:33:39.446Z,5.40
2023-04-05T13:34:41.342Z,5.30
2023-04-05T13:35:46.184Z,4.87
2023-04-05T13:36:49.127Z,4.80
2023-04-05T13:37:51.197Z,5.00
2023-04-05T13:38:52.954Z,5.43
2023-04-05T13:39:57.381Z,6.23
2023-04-05T13:40:59.166Z,4.33
2023-04-05T13:42:01.725Z,4.47
2023-04-05T13:43:03.551Z,4.07
2023-04-05T13:44:06.756Z,4.77
2023-04-05T13:45:09.485Z,4.47
2023-04-05T13:46:11.415Z,4.37
2023-04-05T13:47:14.933Z,4.38
2023-04-05T13:48:17.191Z,5.00
2023-04-05T13:49:19.113Z,4.40
2023-04-05T13:50:20.984Z,5.30
2023-04-05T13:51:23.445Z,4.43
2023-04-05T13:52:25.984Z,4.13
2023-04-05T13:53:28.778Z,4.27
2023-04-05T13:54:30.975Z,4.10
2023-04-05T13:55:33.638Z,4.43
2023-04-05T13:56:35.719Z,3.80
2023-04-05T13:57:37.640Z,4.87
2023-04-05T13:58:40.023Z,4.50
2023-04-05T13:59:43.677Z,4.13
2023-04-05T14:00:45.655Z,4.37
2023-04-05T14:01:47.802Z,5.10
2023-04-05T14:02:52.092Z,5.03
2023-04-05T14:03:53.994Z,3.93
2023-04-05T14:04:56.030Z,4.00
2023-04-05T14:05:57.947Z,4.67
2023-04-05T14:06:59.626Z,4.50
2023-04-05T14:08:01.371Z,3.97
2023-04-05T14:09:03.586Z,4.90
2023-04-05T14:10:06.650Z,4.63
2023-04-05T14:11:08.323Z,4.80
2023-04-05T14:12:10.356Z,4.53
2023-04-05T14:13:13.203Z,5.20
2023-04-05T14:14:14.954Z,4.23
2023-04-05T14:15:16.831Z,4.30
2023-04-05T14:16:18.681Z,4.50